createdAt,value
2019-01-16T00:04:31.010Z,88.71
2019-01-16T00:07:38.105Z,88.14
2019-01-16T00:10:46.640Z,87.58
2019-01-16T00:13:34.398Z,87.37
2019-01-16T00:16:22.140Z,88.17
2019-01-16T00:19:09.692Z,88.20
2019-01-16T00:24:46.531Z,91.69
2019-01-16T00:27:34.269Z,88.96
2019-01-16T00:32:57.323Z,89.94
2019-01-16T00:35:45.076Z,89.97
2019-01-16T00:43:56.999Z,92.12
2019-01-16T00:46:44.511Z,92.56
2019-01-16T00:49:32.023Z,94.76
2019-01-16T00:52:19.545Z,97.77
2019-01-16T01:03:16.997Z,95.58
2019-01-16T01:06:04.568Z,97.64
2019-01-16T01:08:52.319Z,96.50
2019-01-16T01:11:40.071Z,93.93
2019-01-16T01:14:27.833Z,94.05
2019-01-16T01:17:15.647Z,93.54
2019-01-16T01:20:03.156Z,94.09
2019-01-16T01:22:50.661Z,92.35
2019-01-16T01:25:38.177Z,94.14
2019-01-16T01:31:14.782Z,91.78
2019-01-16T01:36:51.385Z,92.75
2019-01-16T01:39:38.889Z,93.41
2019-01-16T01:42:26.407Z,92.45
2019-01-16T01:45:13.908Z,93.07
2019-01-16T01:50:36.639Z,92.75
2019-01-16T01:53:24.139Z,93.53
2019-01-16T01:56:11.887Z,92.96
2019-01-16T02:07:03.455Z,94.19
2019-01-16T02:09:50.958Z,93.45
2019-01-16T02:15:15.312Z,93.23
2019-01-16T02:18:03.111Z,94.66
2019-01-16T02:20:50.679Z,95.68
2019-01-16T02:23:38.423Z,94.26
2019-01-16T02:34:33.936Z,94.20
2019-01-16T02:37:21.448Z,94.83
2019-01-16T02:42:44.354Z,93.15
2019-01-16T02:48:07.216Z,92.60
2019-01-16T02:50:54.723Z,92.83
2019-01-16T02:53:42.221Z,95.09
2019-01-16T02:56:29.729Z,93.92
2019-01-16T03:02:06.318Z,94.81
2019-01-16T03:04:53.820Z,97.94
2019-01-16T03:10:16.862Z,100.00
2019-01-16T03:13:04.379Z,100.00
2019-01-16T03:15:51.876Z,100.00
2019-01-16T03:18:39.637Z,100.00
2019-01-16T03:21:46.489Z,100.00
2019-01-16T03:27:13.265Z,100.00
2019-01-16T03:30:00.785Z,100.00
2019-01-16T03:32:48.299Z,100.00
2019-01-16T03:35:35.818Z,100.00
2019-01-16T03:43:48.055Z,100.00
2019-01-16T03:46:35.555Z,100.00
2019-01-16T03:49:23.339Z,100.00
2019-01-16T03:52:10.838Z,100.00
2019-01-16T03:54:58.357Z,100.00
2019-01-16T04:00:35.026Z,100.00
2019-01-16T04:06:11.677Z,100.00
2019-01-16T04:08:59.189Z,100.00
2019-01-16T04:11:46.704Z,100.00
2019-01-16T04:14:53.808Z,100.00
2019-01-16T04:17:41.565Z,100.00
2019-01-16T04:20:29.072Z,100.00
2019-01-16T04:23:16.590Z,100.00
2019-01-16T04:26:04.345Z,100.00
2019-01-16T04:28:51.865Z,100.00
2019-01-16T04:31:39.365Z,100.00
2019-01-16T04:34:27.122Z,100.00
2019-01-16T04:37:14.875Z,100.00
2019-01-16T04:40:02.379Z,100.00
2019-01-16T04:42:50.133Z,100.00
2019-01-16T04:45:37.638Z,100.00
2019-01-16T04:48:25.159Z,100.00
2019-01-16T04:51:12.888Z,100.00
2019-01-16T04:54:00.406Z,100.00
2019-01-16T04:59:37.007Z,100.00
2019-01-16T05:07:39.360Z,100.00
2019-01-16T05:10:47.656Z,100.00
2019-01-16T05:13:35.175Z,100.00
2019-01-16T05:19:38.378Z,100.00
2019-01-16T05:22:39.563Z,100.00
2019-01-16T05:30:42.213Z,100.00
2019-01-16T05:36:37.805Z,100.00
2019-01-16T05:39:46.343Z,100.00
2019-01-16T05:42:33.862Z,100.00
2019-01-16T05:45:21.377Z,100.00
2019-01-16T05:51:03.509Z,100.00
2019-01-16T05:53:51.010Z,100.00
2019-01-16T05:56:38.533Z,100.00
2019-01-16T05:59:26.273Z,100.00
2019-01-16T06:02:13.793Z,100.00
2019-01-16T06:05:01.294Z,100.00
2019-01-16T06:10:44.025Z,100.00
2019-01-16T06:13:31.764Z,100.00
2019-01-16T06:16:19.291Z,100.00
2019-01-16T06:22:15.209Z,100.00
2019-01-16T06:30:46.644Z,100.00
2019-01-16T06:33:34.404Z,100.00
2019-01-16T06:36:22.002Z,100.00
2019-01-16T06:39:09.751Z,100.00
2019-01-16T06:47:12.127Z,100.00
2019-01-16T06:50:01.890Z,100.00
2019-01-16T06:52:49.361Z,100.00
2019-01-16T06:55:37.100Z,100.00
2019-01-16T06:58:24.848Z,100.00
2019-01-16T07:01:12.350Z,100.00
2019-01-16T07:03:59.866Z,100.00
2019-01-16T07:06:47.426Z,100.00
2019-01-16T07:09:34.879Z,100.00
2019-01-16T07:12:22.381Z,100.00
2019-01-16T07:15:10.143Z,100.00
2019-01-16T07:17:57.641Z,100.00
2019-01-16T07:20:45.398Z,100.00
2019-01-16T07:23:32.902Z,100.00
2019-01-16T07:26:20.652Z,100.00
2019-01-16T07:29:08.166Z,100.00
2019-01-16T07:31:55.681Z,100.00
2019-01-16T07:34:43.193Z,100.00
2019-01-16T07:40:09.993Z,100.00
2019-01-16T07:42:57.730Z,100.00
2019-01-16T07:45:45.241Z,100.00
2019-01-16T07:51:21.845Z,100.00
2019-01-16T07:54:09.347Z,100.00
2019-01-16T07:59:32.361Z,100.00
2019-01-16T08:02:19.862Z,100.00
2019-01-16T08:10:18.095Z,100.00
2019-01-16T08:13:05.599Z,100.00
2019-01-16T08:15:53.115Z,100.00
2019-01-16T08:18:40.636Z,100.00
2019-01-16T08:21:28.396Z,100.00
2019-01-16T08:24:15.900Z,100.00
2019-01-16T08:27:03.432Z,100.00
2019-01-16T08:29:51.165Z,100.00
2019-01-16T08:32:38.680Z,100.00
2019-01-16T08:35:46.974Z,100.00
2019-01-16T08:46:33.240Z,100.00
2019-01-16T08:49:20.765Z,100.00
2019-01-16T08:52:08.500Z,100.00
2019-01-16T08:54:56.025Z,100.00
2019-01-16T08:57:43.532Z,100.00
2019-01-16T09:00:52.075Z,100.00
2019-01-16T09:03:39.578Z,100.00
2019-01-16T09:06:27.349Z,100.00
2019-01-16T09:09:14.854Z,100.00
2019-01-16T09:12:02.442Z,100.00
2019-01-16T09:14:49.946Z,100.00
2019-01-16T09:17:37.473Z,100.00
2019-01-16T09:20:45.775Z,100.00
2019-01-16T09:23:33.294Z,99.68
2019-01-16T09:26:20.934Z,100.00
2019-01-16T09:29:08.640Z,99.93
2019-01-16T09:32:15.549Z,96.18
2019-01-16T09:40:18.239Z,99.17
2019-01-16T09:43:05.739Z,96.79
2019-01-16T09:45:53.256Z,96.23
2019-01-16T09:48:40.756Z,96.06
2019-01-16T09:59:22.969Z,95.13
2019-01-16T10:02:10.499Z,94.65
2019-01-16T10:04:58.018Z,94.75
2019-01-16T10:13:14.041Z,93.94
2019-01-16T10:16:01.797Z,92.14
2019-01-16T10:18:49.635Z,93.62
2019-01-16T10:21:37.157Z,90.88
2019-01-16T10:27:00.484Z,90.97
2019-01-16T10:29:48.254Z,91.46
2019-01-16T10:32:35.777Z,90.60
2019-01-16T10:35:23.467Z,90.99
2019-01-16T10:38:02.354Z,89.71
2019-01-16T10:40:50.540Z,88.01
2019-01-16T10:43:32.202Z,88.01
2019-01-16T10:46:18.429Z,86.49
2019-01-16T10:49:00.038Z,87.92
2019-01-16T10:51:46.639Z,86.77
2019-01-16T10:54:16.699Z,86.94
2019-01-16T10:56:53.206Z,86.16
2019-01-16T10:59:23.261Z,86.42
2019-01-16T11:01:59.093Z,85.26
2019-01-16T11:04:40.723Z,84.72
2019-01-16T11:07:13.707Z,84.93
2019-01-16T11:09:49.754Z,84.68
2019-01-16T11:12:22.999Z,84.51
2019-01-16T11:14:59.011Z,87.04
2019-01-16T11:17:31.740Z,84.00
2019-01-16T11:20:18.353Z,83.46
2019-01-16T11:23:03.483Z,84.29
2019-01-16T11:25:36.442Z,82.33
2019-01-16T11:28:06.637Z,83.09
2019-01-16T11:30:39.491Z,82.71
2019-01-16T11:33:09.568Z,79.82
2019-01-16T11:35:42.346Z,81.54
2019-01-16T11:38:12.432Z,79.53
2019-01-16T11:40:45.590Z,82.05
2019-01-16T11:43:31.194Z,78.72
2019-01-16T11:46:19.315Z,80.24
2019-01-16T11:49:05.506Z,81.56
2019-01-16T11:51:44.389Z,79.09
2019-01-16T11:54:23.901Z,79.12
2019-01-16T11:56:57.307Z,78.10
2019-01-16T11:59:27.347Z,78.85
2019-01-16T12:01:57.386Z,77.89
2019-01-16T12:04:43.936Z,81.40
2019-01-16T12:07:16.641Z,80.01
2019-01-16T12:09:55.420Z,81.22
2019-01-16T12:12:27.922Z,79.90
2019-01-16T12:15:10.001Z,78.79
2019-01-16T12:17:58.041Z,80.08
2019-01-16T12:20:40.006Z,80.80
2019-01-16T12:23:12.743Z,78.24
2019-01-16T12:25:57.977Z,78.34
2019-01-16T12:28:28.029Z,77.23
2019-01-16T12:31:00.756Z,75.17
2019-01-16T12:33:30.802Z,76.43
2019-01-16T12:36:03.684Z,76.82
2019-01-16T12:38:39.845Z,78.43
2019-01-16T12:41:10.193Z,76.25
2019-01-16T12:43:46.015Z,76.72
2019-01-16T12:46:28.332Z,76.62
2019-01-16T12:49:16.660Z,76.48
2019-01-16T12:51:55.931Z,74.93
2019-01-16T12:54:42.441Z,74.37
2019-01-16T12:57:28.687Z,73.45
2019-01-16T13:00:04.242Z,72.44
2019-01-16T13:02:36.866Z,75.10
2019-01-16T13:05:09.186Z,73.82
2019-01-16T13:07:54.728Z,75.69
2019-01-16T13:10:32.972Z,76.20
2019-01-16T13:13:05.992Z,76.87
2019-01-16T13:15:36.203Z,78.45
2019-01-16T13:18:06.480Z,78.53
2019-01-16T13:20:39.260Z,76.63
2019-01-16T13:23:12.400Z,75.79
2019-01-16T13:25:58.985Z,75.03
2019-01-16T13:28:29.015Z,73.38
2019-01-16T13:31:10.857Z,75.62
2019-01-16T13:33:41.180Z,76.25
2019-01-16T13:36:11.218Z,74.80
2019-01-16T13:38:41.251Z,74.32
2019-01-16T13:41:27.760Z,73.14
2019-01-16T13:44:12.857Z,73.74
2019-01-16T13:46:48.790Z,74.34
2019-01-16T13:49:18.827Z,72.66
2019-01-16T13:52:05.048Z,72.92
2019-01-16T13:54:41.085Z,73.26
2019-01-16T13:57:20.310Z,74.82
2019-01-16T13:59:50.338Z,76.58
2019-01-16T14:02:26.372Z,78.63
2019-01-16T14:05:05.573Z,77.17
2019-01-16T14:07:35.609Z,74.00
2019-01-16T14:10:08.326Z,75.08
2019-01-16T14:12:54.864Z,75.54
2019-01-16T14:15:41.659Z,74.90
2019-01-16T14:18:11.756Z,73.61
2019-01-16T14:20:42.102Z,74.30
2019-01-16T14:23:24.139Z,70.36
2019-01-16T14:25:56.739Z,68.47
2019-01-16T14:28:26.758Z,69.32
2019-01-16T14:31:05.833Z,67.62
2019-01-16T14:33:36.151Z,67.59
2019-01-16T14:36:06.884Z,70.06
2019-01-16T14:38:36.919Z,71.36
2019-01-16T14:41:12.971Z,68.35
2019-01-16T14:43:48.986Z,70.68
2019-01-16T14:46:37.675Z,69.72
2019-01-16T14:49:10.881Z,70.04
2019-01-16T14:51:50.666Z,70.21
2019-01-16T14:54:38.922Z,73.84
2019-01-16T14:57:18.484Z,72.05
2019-01-16T14:59:54.020Z,73.23
2019-01-16T15:02:24.356Z,73.31
2019-01-16T15:05:09.683Z,73.75
2019-01-16T15:07:42.637Z,76.56
2019-01-16T15:10:12.739Z,75.01
2019-01-16T15:12:58.878Z,77.35
2019-01-16T15:15:43.721Z,76.25
2019-01-16T15:18:22.842Z,76.03
2019-01-16T15:20:52.876Z,74.47
2019-01-16T15:23:22.914Z,77.82
2019-01-16T15:25:52.952Z,77.70
2019-01-16T15:28:34.704Z,78.36
2019-01-16T15:31:16.997Z,77.07
2019-01-16T15:33:49.442Z,77.36
2019-01-16T15:36:28.365Z,77.91
2019-01-16T15:39:07.367Z,79.82
2019-01-16T15:41:40.568Z,80.10
2019-01-16T15:44:10.601Z,80.91
2019-01-16T15:46:49.753Z,79.26
2019-01-16T15:49:22.756Z,79.80
2019-01-16T15:51:58.486Z,81.53
2019-01-16T15:54:28.518Z,81.43
2019-01-16T15:57:01.606Z,80.46
2019-01-16T15:59:43.627Z,80.54
2019-01-16T16:02:19.902Z,81.17
2019-01-16T16:05:05.303Z,80.05
2019-01-16T16:07:37.755Z,83.00
2019-01-16T16:10:16.838Z,81.26
2019-01-16T16:12:46.894Z,81.12
2019-01-16T16:15:23.007Z,80.73
2019-01-16T16:17:53.058Z,81.75
2019-01-16T16:20:25.747Z,82.20
2019-01-16T16:22:56.024Z,81.55
2019-01-16T16:25:26.071Z,82.47
2019-01-16T16:27:59.155Z,83.29
2019-01-16T16:30:44.400Z,83.30
2019-01-16T16:33:29.062Z,83.02
2019-01-16T16:36:10.989Z,84.50
2019-01-16T16:38:57.697Z,83.56
2019-01-16T16:41:45.449Z,83.66
2019-01-16T16:44:32.970Z,85.89
2019-01-16T16:58:09.514Z,84.87
2019-01-16T17:03:46.244Z,87.10
2019-01-16T17:12:17.356Z,86.47
2019-01-16T17:15:04.864Z,89.31
2019-01-16T17:20:31.957Z,87.90
2019-01-16T17:23:19.510Z,88.50
2019-01-16T17:28:42.627Z,85.00
2019-01-16T17:31:30.151Z,83.77
2019-01-16T17:34:17.668Z,83.44
2019-01-16T17:37:05.447Z,83.21
2019-01-16T17:39:52.966Z,83.14
2019-01-16T17:42:40.541Z,83.29
2019-01-16T17:45:28.240Z,83.62
2019-01-16T17:48:15.760Z,82.85
2019-01-16T17:54:01.075Z,83.69
2019-01-16T17:59:37.677Z,85.92
2019-01-16T18:02:25.327Z,86.66
2019-01-16T18:08:01.919Z,84.89
2019-01-16T18:13:38.521Z,86.66
2019-01-16T18:16:26.022Z,89.40
2019-01-16T18:19:13.541Z,86.38
2019-01-16T18:27:29.624Z,87.72
2019-01-16T18:30:17.139Z,86.69
2019-01-16T18:33:04.895Z,86.76
2019-01-16T18:35:52.644Z,86.46
2019-01-16T18:46:40.221Z,89.58
2019-01-16T18:49:27.725Z,90.30
2019-01-16T18:52:15.248Z,90.17
2019-01-16T18:55:02.755Z,90.30
2019-01-16T19:00:48.788Z,91.65
2019-01-16T19:03:36.544Z,93.70
2019-01-16T19:06:24.180Z,94.40
2019-01-16T19:09:11.705Z,94.45
2019-01-16T19:11:59.206Z,97.18
2019-01-16T19:14:46.959Z,98.26
2019-01-16T19:17:34.459Z,98.79
2019-01-16T19:20:22.112Z,100.00
2019-01-16T19:23:09.869Z,100.00
2019-01-16T19:31:12.561Z,100.00
2019-01-16T19:34:00.082Z,100.00
2019-01-16T19:36:47.595Z,100.00
2019-01-16T19:39:35.115Z,100.00
2019-01-16T19:42:22.613Z,100.00
2019-01-16T19:45:10.129Z,100.00
2019-01-16T19:47:57.629Z,99.33
2019-01-16T19:50:45.147Z,100.00
2019-01-16T19:53:32.897Z,99.46
2019-01-16T19:56:20.488Z,100.00
2019-01-16T19:59:08.293Z,100.00
2019-01-16T20:01:55.814Z,100.00
2019-01-16T20:07:32.481Z,100.00
2019-01-16T20:10:19.984Z,99.52
2019-01-16T20:13:07.499Z,98.16
2019-01-16T20:19:03.076Z,99.27
2019-01-16T20:27:34.517Z,98.01
2019-01-16T20:33:11.425Z,94.83
2019-01-16T20:35:58.938Z,97.27
2019-01-16T20:38:46.695Z,96.07
2019-01-16T20:46:52.666Z,93.69
2019-01-16T20:49:40.178Z,92.46
2019-01-16T20:55:16.911Z,85.86
2019-01-16T21:00:53.507Z,84.13
2019-01-16T21:03:41.239Z,85.13
2019-01-16T21:06:28.756Z,84.59
2019-01-16T21:09:16.256Z,84.84
2019-01-16T21:12:03.913Z,84.59
2019-01-16T21:14:51.651Z,83.92
2019-01-16T21:17:39.169Z,83.86
2019-01-16T21:20:47.459Z,82.30
2019-01-16T21:23:35.041Z,82.51
2019-01-16T21:26:22.541Z,82.41
2019-01-16T21:34:29.074Z,82.60
2019-01-16T21:37:16.576Z,83.75
2019-01-16T21:42:39.626Z,83.47
2019-01-16T21:45:46.487Z,83.99
2019-01-16T21:48:54.785Z,82.13
2019-01-16T21:54:17.906Z,83.29
2019-01-16T21:59:54.505Z,80.53
2019-01-16T22:02:42.235Z,80.31
2019-01-16T22:05:29.821Z,80.44
2019-01-16T22:08:17.325Z,80.11
2019-01-16T22:11:04.887Z,81.40
2019-01-16T22:13:52.360Z,82.77
2019-01-16T22:22:13.949Z,81.69
2019-01-16T22:30:45.515Z,82.58
2019-01-16T22:33:33.268Z,83.26
2019-01-16T22:36:20.775Z,82.67
2019-01-16T22:39:08.359Z,82.76
2019-01-16T22:41:55.862Z,81.43
2019-01-16T22:44:43.381Z,81.09
2019-01-16T22:47:30.888Z,81.57
2019-01-16T22:50:18.479Z,81.94
2019-01-16T22:53:05.995Z,82.34
2019-01-16T22:58:29.173Z,83.58
2019-01-16T23:01:37.489Z,83.69
2019-01-16T23:07:14.326Z,85.96
2019-01-16T23:10:01.829Z,84.91
2019-01-16T23:12:49.355Z,85.50
2019-01-16T23:15:36.864Z,84.80
2019-01-16T23:20:59.794Z,84.53
2019-01-16T23:23:49.861Z,86.38
2019-01-16T23:26:36.550Z,84.79
2019-01-16T23:29:50.297Z,86.71
2019-01-16T23:32:34.400Z,86.01
2019-01-16T23:35:22.234Z,86.79
2019-01-16T23:48:48.881Z,87.21
2019-01-16T23:51:36.416Z,87.24
2019-01-16T23:54:44.705Z,86.01
